This is the latest recevied weather packets stored in our database for station/object KI5GCD-13. If no packets are shown the sender has not sent any weather packets the latest 10 day(s).
| Time | Temp. | Humidity | Pressure | Rain* | Wind** | Luminosity | Snow |
|---|---|---|---|---|---|---|---|
| 1777891487 | 16.11° C | 67% | 1006.3 hPa | 0 mm | 0.45 m/s, 200° | - | - |
| 1777891187 | 16.11° C | 67% | 1006.2 hPa | 0 mm | 0.45 m/s, 247° | - | - |
| 1777890887 | 16.11° C | 66% | 1006.3 hPa | 0 mm | 0.89 m/s, 228° | - | - |
| 1777890587 | 16.11° C | 67% | 1006 hPa | 0 mm | 0.45 m/s, 164° | - | - |
| 1777890287 | 16.67° C | 66% | 1006.4 hPa | 0 mm | 0.89 m/s, 219° | - | - |
| 1777889987 | 16.67° C | 66% | 1006.4 hPa | 0 mm | 0.89 m/s, 202° | - | - |
| 1777889687 | 16.67° C | 65% | 1006.4 hPa | 0 mm | 1.34 m/s, 262° | - | - |
| 1777889387 | 16.67° C | 65% | 1006.4 hPa | 0 mm | 0.89 m/s, 220° | - | - |
| 1777889087 | 16.67° C | 65% | 1006.6 hPa | 0 mm | 0.89 m/s, 246° | - | - |
| 1777888787 | 16.67° C | 66% | 1006.8 hPa | 0 mm | 0.45 m/s, 213° | - | - |
| 1777888487 | 16.67° C | 66% | 1006.8 hPa | 0 mm | 0 m/s | - | - |
| 1777888187 | 16.67° C | 67% | 1006.8 hPa | 0 mm | 0.45 m/s, 179° | - | - |
| 1777887887 | 16.67° C | 65% | 1006.9 hPa | 0 mm | 1.34 m/s, 202° | - | - |
| 1777887587 | 16.67° C | 65% | 1006.5 hPa | 0 mm | 0.89 m/s, 214° | - | - |
| 1777887287 | 16.67° C | 64% | 1006.9 hPa | 0 mm | 0.45 m/s, 230° | - | - |
| 1777886987 | 16.67° C | 65% | 1006.8 hPa | 0 mm | 0.89 m/s, 226° | - | - |
| 1777886687 | 16.67° C | 65% | 1007 hPa | 0 mm | 0 m/s | - | - |
| 1777886387 | 17.22° C | 64% | 1006.9 hPa | 0 mm | 0.45 m/s, 217° | - | - |
| 1777886088 | 17.22° C | 63% | 1007.1 hPa | 0 mm | 1.34 m/s, 249° | - | - |
| 1777885787 | 17.22° C | 63% | 1007.2 hPa | 0 mm | 0.89 m/s, 235° | - | - |
| 1777885487 | 17.22° C | 63% | 1007.1 hPa | 0 mm | 0.89 m/s, 241° | - | - |
| 1777885187 | 17.22° C | 63% | 1007.1 hPa | 0 mm | 0.89 m/s, 174° | - | - |
| 1777884887 | 17.22° C | 62% | 1006.8 hPa | 0 mm | 0.89 m/s, 188° | - | - |
| 1777884587 | 17.22° C | 62% | 1006.9 hPa | 0 mm | 1.79 m/s, 225° | - | - |
| 1777884287 | 17.22° C | 63% | 1007.1 hPa | 0 mm | 0.45 m/s, 191° | - | - |
* Rain latest hour (hover to see other rain measurements)
** Current wind speed in m/s (hover to see current wind gust speed)